Latest Weather Observations for Cressy

IDT60801

Issued at 6:21 pm EST Wednesday 30 September 2020 (issued every 10 minutes, with the page automatically refreshed every 10 minutes)

About weather observations | Map of weather stations | Latest weather observations for TAS | Other Formats
Station Details ID: 091306 Name: CRESSY RESEARCH STATION Lat: -41.73 Lon: 147.08 Height: 148.0 m
Data from the previous 72 hours. | See also: Recent months at Cressy
Date/Time
EST
Temp
°C
App
Temp
°C
Dew
Point
°C
Rel
Hum
%
Delta-T
°C
Wind Press
QNH
hPa
Press
MSL
hPa
Rain since
9am
mm
Dir  Spd
km/h
Gust
km/h
Spd
kts
Gust
kts
30/06:00pm 10.9 8.6 10.4 97 0.3 N 13 17 7 9 - - 0.2
30/05:30pm 11.1 6.6 10.2 94 0.5 NNW 24 35 13 19 - - 0.0
30/05:00pm 11.8 5.7 9.7 87 1.1 NNW 32 41 17 22 - - 0.0
30/04:30pm 12.1 7.5 9.7 85 1.2 N 24 39 13 21 - - 0.0
30/04:00pm 12.1 8.9 10.0 87 1.1 N 17 30 9 16 - - 0.0
30/03:30pm 11.9 8.0 9.6 86 1.2 NNW 20 28 11 15 - - 0.0
30/03:00pm 11.7 7.5 9.6 87 1.1 NNW 22 32 12 17 - - 0.0
30/02:30pm 11.6 7.8 9.7 88 1.0 NNW 20 26 11 14 - - 0.0
30/02:00pm 12.0 8.0 9.2 83 1.4 NNW 20 26 11 14 - - 0.0
30/01:30pm 12.6 7.0 8.9 78 1.9 NNW 28 33 15 18 - - 0.0
30/01:00pm 12.8 7.8 9.6 81 1.6 NNW 26 32 14 17 - - 0.0
30/12:30pm 13.4 7.6 9.6 78 2.0 NNW 30 39 16 21 - - 0.0
30/12:00pm 13.2 7.8 9.6 79 1.9 NNW 28 37 15 20 - - 0.0
30/11:30am 12.9 7.2 9.9 82 1.6 NNW 30 39 16 21 - - 0.0
30/11:00am 12.8 8.3 10.0 83 1.4 NNW 24 30 13 16 - - 0.0
30/10:30am 14.0 9.2 10.2 78 2.0 NNW 26 33 14 18 - - 0.0
30/10:00am 12.7 9.9 10.1 84 1.3 N 15 24 8 13 - - 0.0
30/09:30am 12.4 9.7 10.3 87 1.1 N 15 19 8 10 - - 0.0
30/09:00am 11.4 9.8 10.1 92 0.7 NNE 9 11 5 6 - - 0.0
30/08:30am 10.1 8.2 9.0 93 0.5 NE 9 11 5 6 - - 0.0
30/08:00am 9.5 7.4 8.3 92 0.6 N 9 13 5 7 - - 0.0
30/07:30am 9.1 8.0 8.3 95 0.4 NNE 4 9 2 5 - - 0.0
30/07:00am 8.5 6.9 8.1 97 0.2 NNE 6 7 3 4 - - 0.0
30/06:30am 8.1 6.2 7.5 96 0.3 NE 7 7 4 4 - - 0.0
30/06:00am 8.0 7.3 7.1 94 0.4 CALM 0 0 0 0 - - 0.0
30/05:30am 8.2 6.4 7.0 92 0.6 NE 6 7 3 4 - - 0.0
30/05:00am 9.1 8.5 7.5 90 0.8 CALM 0 0 0 0 - - 0.0
30/04:30am 9.3 7.6 7.7 90 0.8 NE 6 7 3 4 - - 0.0
30/04:00am 9.3 7.4 7.6 89 0.8 WNW 7 9 4 5 - - 0.0
30/03:30am 9.5 7.6 7.4 87 1.0 NW 7 9 4 5 - - 0.0
30/03:00am 9.4 6.7 7.5 88 0.9 WNW 11 15 6 8 - - 0.0
30/02:30am 9.2 6.2 7.5 89 0.8 WNW 13 17 7 9 - - 0.0
30/02:00am 9.4 6.7 7.3 87 1.0 WNW 11 13 6 7 - - 0.0
30/01:30am 9.5 6.4 7.3 86 1.0 WNW 13 17 7 9 - - 0.0
30/01:00am 9.5 6.4 7.1 85 1.1 NW 13 17 7 9 - - 0.0
30/12:30am 9.6 6.8 6.9 83 1.3 WNW 11 15 6 8 - - 0.0
30/12:00am 9.6 6.7 6.7 82 1.4 WNW 11 15 6 8 - - 0.0
 
Date/Time
EST
Temp
°C
App
Temp
°C
Dew
Point
°C
Rel
Hum
%
Delta-T
°C
Wind Press
QNH
hPa
Press
MSL
hPa
Rain since
9am
mm
Dir  Spd
km/h
Gust
km/h
Spd
kts
Gust
kts
29/11:30pm 9.5 5.8 6.4 81 1.4 WNW 15 19 8 10 - - 0.0
29/11:00pm 9.0 5.3 6.1 82 1.3 WNW 15 19 8 10 - - 0.0
29/10:30pm 9.0 5.6 6.1 82 1.3 WNW 13 19 7 10 - - 0.0
29/10:00pm 8.8 5.5 6.3 84 1.2 WNW 13 17 7 9 - - 0.0
29/09:30pm 8.6 5.7 6.4 86 1.0 WNW 11 13 6 7 - - 0.0
29/09:00pm 9.3 6.4 6.6 83 1.3 WNW 11 15 6 8 - - 0.0
29/08:30pm 9.6 6.7 6.5 81 1.5 NW 11 15 6 8 - - 0.0
29/08:00pm 9.7 5.6 6.2 79 1.6 NW 17 20 9 11 - - 0.0
29/07:30pm 9.5 5.8 6.2 80 1.5 NW 15 19 8 10 - - 0.0
29/07:00pm 9.4 5.2 5.9 79 1.6 NW 17 24 9 13 - - 0.0
29/06:30pm 9.3 5.5 6.0 80 1.5 NW 15 19 8 10 - - 0.0
29/06:00pm 9.9 6.5 6.1 77 1.8 WNW 13 19 7 10 - - 0.0
29/05:30pm 10.9 6.4 5.9 71 2.3 NW 19 26 10 14 - - 0.0
29/05:00pm 11.6 6.1 5.7 67 2.8 NW 24 30 13 16 - - 0.0
29/04:30pm 11.9 6.8 5.8 66 2.9 NNW 22 30 12 16 - - 0.0
29/04:00pm 12.6 7.4 5.5 62 3.3 NNW 22 28 12 15 - - 0.0
29/03:30pm 13.0 7.5 5.7 61 3.5 NNW 24 32 13 17 - - 0.0
29/03:00pm 13.2 7.6 5.4 59 3.7 NW 24 30 13 16 - - 0.0
29/02:30pm 14.1 10.8 7.9 66 3.1 NW 15 22 8 12 - - 0.0
29/02:00pm 13.2 9.4 7.4 68 2.9 WNW 17 22 9 12 - - 0.0
29/01:30pm 13.9 10.6 7.9 67 3.0 WNW 15 20 8 11 - - 0.0
29/01:00pm 13.3 10.3 7.5 68 2.9 NW 13 20 7 11 - - 0.0
29/12:30pm 12.6 8.6 6.6 67 2.9 NW 17 24 9 13 - - 0.0
29/12:00pm 12.2 8.4 7.5 73 2.3 NW 17 22 9 12 - - 0.0
29/11:30am 11.6 6.9 6.1 69 2.6 NW 20 30 11 16 - - 0.0
29/11:00am 11.9 6.9 6.6 70 2.5 NNW 22 30 12 16 - - 0.0
29/10:30am 11.2 5.8 6.5 73 2.2 NNW 24 30 13 16 - - 0.0
29/10:00am 11.3 6.8 6.0 70 2.5 NNW 19 30 10 16 - - 0.0
29/09:30am 11.1 7.0 6.0 71 2.4 NNW 17 20 9 11 - - 0.0
29/09:00am 10.1 8.0 8.2 88 0.9 NNW 9 15 5 8 - - 0.0
29/08:30am 7.0 5.2 7.0 100 0.0 NNW 6 9 3 5 - - 0.0
29/08:00am 5.7 3.6 5.7 100 0.0 NW 6 7 3 4 - - 0.0
29/07:30am 4.4 2.0 4.4 100 0.0 W 6 7 3 4 - - 0.0
29/07:00am 2.8 0.5 2.8 100 0.0 SSW 4 7 2 4 - - 0.0
29/06:30am 1.0 -1.2 1.0 100 0.0 SSE 2 7 1 4 - - 0.0
29/06:00am 0.5 -1.4 0.5 100 0.0 CALM 0 0 0 0 - - 0.0
29/05:30am 1.3 -0.5 1.3 100 0.0 CALM 0 0 0 0 - - 0.0
29/05:00am 0.9 -0.9 0.9 100 0.0 CALM 0 0 0 0 - - 0.0
29/04:30am 0.1 -1.9 0.1 100 0.0 CALM 0 0 0 0 - - 0.0
29/04:00am 0.9 -2.1 0.9 100 0.0 ESE 6 7 3 4 - - 0.0
29/03:30am 0.9 -2.3 0.9 100 0.0 S 7 9 4 5 - - 0.0
29/03:00am 0.6 -2.4 0.5 99 0.0 S 6 9 3 5 - - 0.0
29/02:30am 2.8 1.3 2.8 100 0.0 CALM 0 0 0 0 - - 0.0
29/02:00am 2.0 0.3 1.9 99 0.0 CALM 0 0 0 0 - - 0.0
29/01:30am 3.0 1.1 2.9 99 0.0 WSW 2 7 1 4 - - 0.0
29/01:00am 3.3 1.8 3.2 99 0.0 CALM 0 0 0 0 - - 0.0
29/12:30am 2.5 -1.2 2.2 98 0.1 S 11 13 6 7 - - 0.0
29/12:00am 3.5 0.7 3.1 97 0.2 S 7 9 4 5 - - 0.0
 
Date/Time
EST
Temp
°C
App
Temp
°C
Dew
Point
°C
Rel
Hum
%
Delta-T
°C
Wind Press
QNH
hPa
Press
MSL
hPa
Rain since
9am
mm
Dir  Spd
km/h
Gust
km/h
Spd
kts
Gust
kts
28/11:30pm 4.2 1.5 3.5 95 0.3 SSE 7 9 4 5 - - 0.0
28/11:00pm 5.1 2.1 3.9 92 0.5 SE 9 11 5 6 - - 0.0
28/10:30pm 5.6 2.6 4.1 90 0.6 SE 9 13 5 7 - - 0.0
28/10:00pm 6.5 3.2 4.5 87 0.9 ESE 11 15 6 8 - - 0.0
28/09:30pm 6.8 2.6 3.9 82 1.2 ESE 15 17 8 9 - - 0.0
28/09:00pm 7.6 3.3 3.1 73 1.9 SE 15 17 8 9 - - 0.0
28/08:30pm 8.1 3.8 3.2 71 2.1 SE 15 22 8 12 - - 0.0
28/08:00pm 8.1 4.2 3.4 72 2.0 SE 13 17 7 9 - - 0.0
28/07:30pm 8.8 4.5 3.4 69 2.3 SE 15 20 8 11 - - 0.0
28/07:00pm 8.7 5.2 3.5 70 2.3 SE 11 13 6 7 - - 0.0
28/06:30pm 9.6 5.4 4.0 68 2.5 SE 15 17 8 9 - - 0.0
28/06:00pm 11.1 7.9 5.0 66 2.8 SE 11 13 6 7 - - 0.0
28/05:30pm 12.9 9.4 5.3 60 3.6 ESE 13 17 7 9 - - 0.0
28/05:00pm 14.1 10.8 4.7 53 4.4 ESE 11 17 6 9 - - 0.0
28/04:30pm 14.6 11.2 5.9 56 4.2 ESE 13 19 7 10 - - 0.0
28/04:00pm 15.6 12.0 4.9 49 5.1 SE 13 19 7 10 - - 0.0
28/03:30pm 15.7 11.8 3.5 44 5.6 SSE 13 20 7 11 - - 0.0
28/03:00pm 15.9 12.2 2.3 40 6.1 SSE 11 17 6 9 - - 0.0
28/02:30pm 16.0 13.9 6.7 54 4.6 ESE 7 13 4 7 - - 0.0
28/02:00pm 16.0 13.2 3.4 43 5.8 SE 7 19 4 10 - - 0.0
28/01:30pm 15.4 12.2 3.2 44 5.6 WNW 9 15 5 8 - - 0.0
28/01:00pm 15.3 12.8 3.8 46 5.3 WNW 6 11 3 6 - - 0.0
28/12:30pm 15.2 12.9 4.9 50 4.9 NNW 6 13 3 7 - - 0.0
28/12:00pm 14.3 11.4 4.6 52 4.5 N 9 20 5 11 - - 0.0
28/11:30am 13.9 10.3 4.8 54 4.3 NNW 13 17 7 9 - - 0.0
28/11:00am 12.4 8.9 3.6 55 4.0 N 11 17 6 9 - - 0.0
28/10:30am 13.0 10.3 3.7 53 4.2 NE 7 13 4 7 - - 0.0
28/10:00am 12.4 9.7 3.6 55 4.0 NW 7 11 4 6 - - 0.0
28/09:30am 12.1 9.2 2.6 52 4.2 E 7 11 4 6 - - 0.0
28/09:00am 10.8 8.9 2.6 57 3.6 WSW 2 7 1 4 - - 0.0
28/08:30am 10.2 6.7 3.7 64 2.9 ENE 11 19 6 10 - - 0.0
28/08:00am 6.8 3.4 4.1 83 1.2 ENE 11 15 6 8 - - 0.0
28/07:30am 4.5 2.3 3.6 94 0.4 SSW 4 7 2 4 - - 0.0
28/07:00am 2.1 -0.4 1.7 97 0.2 E 4 11 2 6 - - 0.0
28/06:30am 0.7 -2.4 0.3 97 0.1 W 6 11 3 6 - - 0.0
28/06:00am -0.2 -3.4 -0.8 96 0.2 SSW 6 13 3 7 - - 0.0
28/05:30am 0.2 -3.0 -0.5 95 0.3 NE 6 9 3 5 - - 0.0
28/05:00am 0.7 -3.0 0.1 96 0.2 NNE 9 11 5 6 - - 0.0
28/04:30am 0.2 -3.0 -0.5 95 0.3 E 6 7 3 4 - - 0.0
28/04:00am 1.1 -2.9 0.5 96 0.2 NNE 11 17 6 9 - - 0.0
28/03:30am 0.9 -2.4 0.2 95 0.3 N 7 9 4 5 - - 0.0
28/03:00am 0.6 -2.6 -0.3 94 0.3 NNE 6 9 3 5 - - 0.0
28/02:30am 1.2 -1.1 0.5 95 0.3 NNE 2 7 1 4 - - 0.0
28/02:00am 1.0 -2.3 0.0 93 0.4 NNE 7 9 4 5 - - 0.0
28/01:30am 1.4 -0.6 0.2 92 0.4 CALM 0 6 0 3 - - 0.0
28/01:00am 1.9 -1.2 0.3 89 0.6 NNE 6 7 3 4 - - 0.0
28/12:30am 2.7 -0.3 0.9 88 0.7 N 6 7 3 4 - - 0.0
28/12:00am 2.8 -0.3 1.6 92 0.5 N 7 13 4 7 - - 0.0
 
Date/Time
EST
Temp
°C
App
Temp
°C
Dew
Point
°C
Rel
Hum
%
Delta-T
°C
Wind Press
QNH
hPa
Press
MSL
hPa
Rain since
9am
mm
Dir  Spd
km/h
Gust
km/h
Spd
kts
Gust
kts
27/11:30pm 3.6 0.4 1.0 83 1.0 NNE 7 11 4 6 - - 0.0
27/11:00pm 3.1 1.0 1.5 89 0.6 WSW 2 6 1 3 - - 0.0
27/10:30pm 2.3 0.3 -0.1 84 0.9 CALM 0 6 0 3 - - 0.0
27/10:00pm 5.0 2.1 1.7 79 1.3 SW 6 9 3 5 - - 0.0
27/09:30pm 5.1 1.9 0.7 73 1.7 SE 7 15 4 8 - - 0.0
27/09:00pm 4.9 0.9 0.7 74 1.6 ESE 11 17 6 9 - - 0.0
27/08:30pm 5.1 1.9 0.7 73 1.7 S 7 11 4 6 - - 0.0
27/08:00pm 4.7 1.6 1.4 79 1.3 ESE 7 11 4 6 - - 0.0
27/07:30pm 6.1 3.0 1.1 70 2.0 S 7 9 4 5 - - 0.0
27/07:00pm 6.1 2.2 1.2 71 2.0 SSE 11 17 6 9 - - 0.0
27/06:30pm 7.0 3.2 1.5 68 2.2 SSW 11 17 6 9 - - 0.0

Other formats

Comma delimited format used in spreadsheet applications
http://www.bom.gov.au/fwo/IDT60801/IDT60801.95969.axf

JavaScript Object Notation format (JSON) in row-major order
http://www.bom.gov.au/fwo/IDT60801/IDT60801.95969.json

Data quality

Most of these data are generated automatically and are frequently updated. Quality checks on data are not normally performed. It is possible for incorrect values to appear. Refer to information at About Latest Weather Observations and please check the disclaimer before using these data.